Time;durP1;ratioP1;P1;durP2;ratioP2;P2;SDS_P1;SDS_P2;PMS_P1;PMS_P2;Temp;Humidity;BMP_temperature;BMP_pressure;BME280_temperature;BME280_humidity;BME280_pressure;Samples;Min_cycle;Max_cycle;Signal;HPM_P1;HPM_P2
2023/10/31 00:01:09;;;;;;;0.30;0.30;;;;;;;3.96;100.00;98810.63;5027089;28;20034;-75
2023/10/31 00:03:34;;;;;;;0.40;0.40;;;;;;;4.03;100.00;98812.59;5001154;28;20045;-76
2023/10/31 00:06:00;;;;;;;0.50;0.50;;;;;;;4.03;100.00;98815.25;4998181;28;20030;-76
2023/10/31 00:08:28;;;;;;;0.50;0.50;;;;;;;4.09;100.00;98822.50;5000030;28;20038;-76
2023/10/31 00:10:57;;;;;;;0.40;0.40;;;;;;;4.09;100.00;98822.50;5001730;28;20125;-77
2023/10/31 00:13:24;;;;;;;0.40;0.40;;;;;;;4.03;100.00;98817.91;5002910;28;20040;-76
2023/10/31 00:15:50;;;;;;;0.40;0.40;;;;;;;3.99;100.00;98828.06;5019594;28;20030;-76
2023/10/31 00:18:16;;;;;;;0.40;0.40;;;;;;;4.03;100.00;98823.22;5001664;28;20391;-77
2023/10/31 00:20:44;;;;;;;0.50;0.50;;;;;;;4.19;100.00;98825.72;5002693;28;20437;-76
2023/10/31 00:23:10;;;;;;;0.30;0.30;;;;;;;4.32;100.00;98830.41;5002893;28;20030;-76
2023/10/31 00:25:36;;;;;;;0.40;0.40;;;;;;;4.47;100.00;98833.88;5011351;28;20055;-76
2023/10/31 00:28:04;;;;;;;0.40;0.40;;;;;;;4.57;100.00;98836.28;5001197;28;20041;-76
2023/10/31 00:30:29;;;;;;;0.40;0.40;;;;;;;4.71;100.00;98838.13;5031543;28;20037;-76
2023/10/31 00:32:55;;;;;;;0.45;0.45;;;;;;;4.77;100.00;98839.22;5034542;28;20037;-76
2023/10/31 00:35:21;;;;;;;0.40;0.40;;;;;;;4.70;100.00;98835.63;4990628;28;20041;-76
2023/10/31 00:37:46;;;;;;;0.40;0.40;;;;;;;4.58;100.00;98832.63;5000458;28;20392;-76
2023/10/31 00:40:12;;;;;;;0.40;0.40;;;;;;;4.43;100.00;98837.94;5000976;28;20107;-76
2023/10/31 00:42:40;;;;;;;0.40;0.40;;;;;;;4.30;100.00;98833.25;5002310;28;20029;-76
2023/10/31 00:45:08;;;;;;;0.40;0.40;;;;;;;4.19;100.00;98841.69;5002336;28;20033;-76
2023/10/31 00:47:34;;;;;;;0.40;0.40;;;;;;;4.14;100.00;98838.75;5034843;28;20116;-76
2023/10/31 00:49:59;;;;;;;0.50;0.50;;;;;;;4.02;100.00;98838.34;5000661;28;20556;-76
2023/10/31 00:52:26;;;;;;;0.40;0.40;;;;;;;3.93;100.00;98850.88;5018236;28;20491;-75
2023/10/31 00:54:53;;;;;;;0.40;0.40;;;;;;;3.76;100.00;98849.41;5034612;28;20041;-76
2023/10/31 00:57:19;;;;;;;0.40;0.40;;;;;;;3.60;100.00;98854.81;5018073;28;20041;-76
2023/10/31 00:59:45;;;;;;;0.43;0.43;;;;;;;3.47;100.00;98850.13;5000406;28;20376;-76
2023/10/31 01:02:13;;;;;;;0.40;0.40;;;;;;;3.37;100.00;98855.66;4992011;28;20033;-75
2023/10/31 01:04:39;;;;;;;0.40;0.40;;;;;;;3.28;100.00;98862.00;5034178;28;20037;-76
2023/10/31 01:07:04;;;;;;;0.40;0.40;;;;;;;3.18;100.00;98845.50;5001954;28;20033;-75
2023/10/31 01:09:30;;;;;;;0.40;0.40;;;;;;;3.16;100.00;98861.59;5034192;28;20108;-75
2023/10/31 01:11:55;;;;;;;0.50;0.50;;;;;;;3.11;100.00;98866.59;5033941;28;20033;-76
2023/10/31 01:14:24;;;;;;;0.50;0.50;;;;;;;3.04;100.00;98861.16;5018114;28;20061;-75
2023/10/31 01:16:49;;;;;;;0.40;0.40;;;;;;;3.07;100.00;98866.13;5017737;28;20037;-75
2023/10/31 01:19:15;;;;;;;0.40;0.40;;;;;;;3.07;100.00;98847.53;5016611;28;20088;-76
2023/10/31 01:21:40;;;;;;;0.40;0.40;;;;;;;3.06;100.00;98864.44;5016877;28;20375;-75
2023/10/31 01:24:06;;;;;;;0.40;0.40;;;;;;;2.98;100.00;98868.97;5014157;28;20045;-75
2023/10/31 01:26:32;;;;;;;0.40;0.40;;;;;;;2.86;100.00;98872.03;4998174;28;20563;-75
2023/10/31 01:28:59;;;;;;;0.30;0.30;;;;;;;2.88;100.00;98871.00;5014632;28;20048;-75
2023/10/31 01:31:24;;;;;;;0.40;0.40;;;;;;;2.93;100.00;98871.31;5017080;28;20431;-75
2023/10/31 01:33:50;;;;;;;0.40;0.40;;;;;;;2.98;100.00;98869.81;5017282;28;20106;-76
2023/10/31 01:36:18;;;;;;;0.50;0.50;;;;;;;2.98;100.00;98877.75;4997818;28;20121;-76
2023/10/31 01:38:46;;;;;;;0.50;0.50;;;;;;;2.87;100.00;98875.50;4997964;28;20034;-76
2023/10/31 01:41:12;;;;;;;0.40;0.40;;;;;;;2.76;100.00;98883.84;5016299;28;20048;-75
2023/10/31 01:43:39;;;;;;;0.50;0.50;;;;;;;2.68;100.00;98875.91;5017310;28;20030;-76
2023/10/31 01:46:05;;;;;;;0.40;0.40;;;;;;;2.69;100.00;98878.38;5017088;28;20040;-75
2023/10/31 01:48:32;;;;;;;0.40;0.40;;;;;;;-146.42;100.00;66673.91;5001186;28;20361;-76
2023/10/31 01:51:03;;;;;;;0.47;0.47;;;;;;;-146.42;100.00;66673.91;5000718;28;20030;-76
2023/10/31 01:53:32;;;;;;;0.40;0.40;;;;;;;2.77;100.00;98881.00;4999119;28;20026;-75
2023/10/31 01:56:01;;;;;;;0.40;0.40;;;;;;;2.75;100.00;98882.19;5032887;28;20033;-76
2023/10/31 01:58:33;;;;;;;0.40;0.40;;;;;;;2.77;100.00;98885.50;5017320;28;20440;-75
2023/10/31 02:01:00;;;;;;;0.40;0.40;;;;;;;2.68;100.00;98894.50;5000919;28;20034;-76
2023/10/31 02:03:27;;;;;;;0.40;0.40;;;;;;;2.55;100.00;98890.53;5017340;28;20037;-75
2023/10/31 02:05:52;;;;;;;0.40;0.40;;;;;;;-146.42;100.00;66673.91;5016692;28;20048;-75
2023/10/31 02:08:18;;;;;;;0.40;0.40;;;;;;;-146.42;100.00;66673.91;5017009;28;20037;-76
2023/10/31 02:10:44;;;;;;;0.45;0.45;;;;;;;-146.42;100.00;66673.91;5016840;28;20029;-75
2023/10/31 02:13:14;;;;;;;0.47;0.47;;;;;;;-146.42;100.00;66673.91;5000302;28;20025;-75
2023/10/31 02:15:42;;;;;;;0.40;0.40;;;;;;;-146.42;100.00;66673.91;5016470;28;20064;-76
2023/10/31 02:18:08;;;;;;;0.40;0.40;;;;;;;-146.42;100.00;66673.91;5016607;28;20127;-75
2023/10/31 02:20:34;;;;;;;0.50;0.50;;;;;;;-146.42;100.00;66673.91;5016711;28;20026;-75
2023/10/31 02:23:00;;;;;;;0.40;0.40;;;;;;;-146.42;100.00;66673.91;5032986;28;20083;-75
2023/10/31 02:25:25;;;;;;;0.50;0.50;;;;;;;-146.42;100.00;66673.91;4983897;28;20128;-76
2023/10/31 02:27:51;;;;;;;0.50;0.50;;;;;;;-146.42;100.00;66673.91;5014225;28;20108;-75
2023/10/31 02:30:17;;;;;;;0.50;0.50;;;;;;;-146.42;100.00;66673.91;5000330;28;20041;-75
2023/10/31 02:32:43;;;;;;;7.13;5.60;;;;;;;-146.42;100.00;66673.91;4987173;28;20140;-75
2023/10/31 02:35:08;;;;;;;0.40;0.40;;;;;;;-146.42;100.00;66673.91;5030122;28;20095;-75
2023/10/31 02:37:34;;;;;;;0.40;0.40;;;;;;;-146.42;100.00;66673.91;5015298;28;20483;-77
2023/10/31 02:40:00;;;;;;;0.40;0.40;;;;;;;-146.42;100.00;66673.91;5031352;28;20431;-76
2023/10/31 02:42:26;;;;;;;0.45;0.45;;;;;;;-146.42;100.00;66673.91;4998818;28;20038;-75
2023/10/31 02:44:52;;;;;;;0.50;0.50;;;;;;;-146.42;100.00;66673.91;5015671;28;20034;-75
2023/10/31 02:47:20;;;;;;;0.40;0.40;;;;;;;-146.42;100.00;66673.91;5016358;28;20475;-75
2023/10/31 02:49:46;;;;;;;0.40;0.40;;;;;;;-146.42;100.00;66673.91;5016118;28;20051;-76
2023/10/31 02:52:12;;;;;;;0.50;0.50;;;;;;;-146.42;100.00;66673.91;5016482;28;20045;-76
2023/10/31 02:54:37;;;;;;;0.40;0.40;;;;;;;-146.42;100.00;66673.91;4999351;28;20080;-75
2023/10/31 02:57:04;;;;;;;0.50;0.50;;;;;;;-146.42;100.00;66673.91;5015953;28;20038;-75
2023/10/31 02:59:30;;;;;;;0.40;0.40;;;;;;;-146.42;100.00;66673.91;4999622;28;20049;-75
2023/10/31 03:01:57;;;;;;;0.40;0.40;;;;;;;-146.42;100.00;66673.91;5013041;28;20037;-75
2023/10/31 03:04:23;;;;;;;0.40;0.40;;;;;;;-146.42;100.00;66673.91;4989354;28;20052;-75
2023/10/31 03:06:49;;;;;;;0.40;0.40;;;;;;;2.54;100.00;98907.47;5032558;28;20057;-75
2023/10/31 03:09:14;;;;;;;0.40;0.40;;;;;;;2.74;100.00;98910.53;5015379;28;20120;-75
2023/10/31 03:11:40;;;;;;;0.40;0.40;;;;;;;2.95;100.00;98902.00;4999764;28;20044;-75
2023/10/31 03:14:06;;;;;;;0.40;0.40;;;;;;;3.06;100.00;98898.97;5016161;28;20040;-75
2023/10/31 03:16:32;;;;;;;0.40;0.40;;;;;;;3.04;100.00;98901.00;5015310;28;20038;-76
2023/10/31 03:18:58;;;;;;;0.50;0.50;;;;;;;2.94;100.00;98905.69;5032005;28;20492;-75
2023/10/31 03:21:24;;;;;;;0.40;0.40;;;;;;;2.78;100.00;98898.59;5032092;28;20033;-76
2023/10/31 03:23:50;;;;;;;0.50;0.50;;;;;;;2.68;100.00;98899.81;4998925;28;20106;-75
2023/10/31 03:26:19;;;;;;;0.50;0.50;;;;;;;2.56;100.00;98899.31;5018683;28;20033;-75
2023/10/31 03:28:45;;;;;;;0.47;0.47;;;;;;;2.36;100.00;98901.53;5003773;28;20037;-75
2023/10/31 03:31:12;;;;;;;0.40;0.40;;;;;;;2.28;100.00;98906.84;5036031;28;20057;-75
2023/10/31 03:33:37;;;;;;;0.50;0.50;;;;;;;2.33;100.00;98901.84;5019482;28;20033;-75
2023/10/31 03:36:04;;;;;;;0.40;0.40;;;;;;;2.46;100.00;98893.38;5019909;28;20037;-76
2023/10/31 03:38:31;;;;;;;0.50;0.50;;;;;;;2.62;100.00;98904.78;5019397;28;20034;-75
2023/10/31 03:40:57;;;;;;;0.50;0.50;;;;;;;2.67;100.00;98906.91;5004758;28;20030;-76
2023/10/31 03:43:22;;;;;;;0.40;0.40;;;;;;;2.60;100.00;98900.66;5002559;28;20487;-77
2023/10/31 03:45:48;;;;;;;0.40;0.40;;;;;;;2.44;100.00;98896.22;5015979;28;20037;-75
2023/10/31 03:48:15;;;;;;;0.40;0.40;;;;;;;2.26;100.00;98892.94;5015914;28;20365;-75
2023/10/31 03:50:41;;;;;;;0.40;0.40;;;;;;;2.11;100.00;98900.72;5000073;28;20419;-75
2023/10/31 03:53:07;;;;;;;0.40;0.40;;;;;;;2.05;100.00;98910.19;5003094;28;20032;-76
2023/10/31 03:55:32;;;;;;;0.40;0.40;;;;;;;1.97;100.00;98910.19;5018877;28;20395;-76
2023/10/31 03:57:58;;;;;;;0.50;0.50;;;;;;;1.98;100.00;98909.19;5002774;28;20026;-76
2023/10/31 04:00:24;;;;;;;0.40;0.40;;;;;;;1.95;100.00;98912.16;5003174;28;20037;-75
2023/10/31 04:02:52;;;;;;;0.40;0.40;;;;;;;2.00;100.00;98906.38;5003026;28;20037;-75
2023/10/31 04:05:19;;;;;;;0.50;0.50;;;;;;;1.96;100.00;98919.97;5016932;28;20048;-75
2023/10/31 04:07:46;;;;;;;0.40;0.40;;;;;;;1.86;100.00;98918.47;5018196;28;20083;-76
2023/10/31 04:10:14;;;;;;;0.43;0.43;;;;;;;1.75;100.00;98917.81;5035000;28;20511;-75
2023/10/31 04:12:42;;;;;;;0.40;0.40;;;;;;;1.74;100.00;98910.81;5017713;28;20051;-76
2023/10/31 04:15:08;;;;;;;0.40;0.40;;;;;;;1.74;100.00;98910.00;5035266;28;20041;-75
2023/10/31 04:17:34;;;;;;;0.50;0.50;;;;;;;1.67;100.00;98920.44;5002800;28;20107;-75
2023/10/31 04:20:01;;;;;;;0.40;0.40;;;;;;;1.69;100.00;98915.81;5019135;28;20124;-76
2023/10/31 04:22:27;;;;;;;0.40;0.40;;;;;;;1.88;100.00;98921.75;4986017;28;20123;-76
2023/10/31 04:24:53;;;;;;;0.40;0.40;;;;;;;2.25;100.00;98928.38;5002366;28;20395;-75
2023/10/31 04:27:19;;;;;;;0.40;0.40;;;;;;;2.58;100.00;98935.31;5034768;28;20029;-75
2023/10/31 04:29:47;;;;;;;0.50;0.50;;;;;;;2.83;100.00;98941.38;5035855;28;20474;-75
2023/10/31 04:32:13;;;;;;;0.40;0.40;;;;;;;3.06;100.00;98944.09;5001795;28;20124;-76
2023/10/31 04:34:38;;;;;;;0.40;0.40;;;;;;;3.16;100.00;98943.91;5002628;28;20097;-75
2023/10/31 04:37:04;;;;;;;0.43;0.43;;;;;;;3.08;100.00;98941.28;5018477;28;20073;-76
2023/10/31 04:39:30;;;;;;;0.40;0.40;;;;;;;2.89;100.00;98931.91;5002446;28;20037;-77
2023/10/31 04:41:55;;;;;;;0.40;0.40;;;;;;;2.61;100.00;98934.97;5001745;28;20029;-75
2023/10/31 04:44:21;;;;;;;0.50;0.50;;;;;;;2.47;100.00;98935.66;4998743;28;20034;-76
2023/10/31 04:46:49;;;;;;;0.40;0.40;;;;;;;2.36;100.00;98939.50;4983143;28;20053;-75
2023/10/31 04:49:17;;;;;;;0.40;0.40;;;;;;;2.25;100.00;98939.84;5014887;28;20112;-76
2023/10/31 04:51:43;;;;;;;0.40;0.40;;;;;;;2.16;100.00;98936.34;5018275;28;20515;-76
2023/10/31 04:54:09;;;;;;;0.40;0.40;;;;;;;2.06;100.00;98930.38;5034081;28;20033;-76
2023/10/31 04:56:35;;;;;;;0.43;0.43;;;;;;;1.98;100.00;98941.84;5002158;28;20118;-76
2023/10/31 04:59:02;;;;;;;0.50;0.50;;;;;;;1.78;100.00;98947.63;5018042;28;20076;-75
2023/10/31 05:01:28;;;;;;;0.40;0.40;;;;;;;1.70;100.00;98953.72;5018093;28;20048;-76
2023/10/31 05:03:57;;;;;;;0.50;0.50;;;;;;;1.68;100.00;98951.22;5002609;28;20087;-76
2023/10/31 05:06:23;;;;;;;0.50;0.50;;;;;;;1.69;100.00;98950.25;5017926;28;20057;-76
2023/10/31 05:08:49;;;;;;;0.50;0.50;;;;;;;1.72;100.00;98960.53;4998852;28;20542;-75
2023/10/31 05:11:18;;;;;;;0.40;0.40;;;;;;;1.72;100.00;98970.28;5011640;28;20029;-76
2023/10/31 05:13:45;;;;;;;0.50;0.50;;;;;;;1.74;100.00;98970.94;5046357;28;20057;-76
2023/10/31 05:16:11;;;;;;;0.40;0.40;;;;;;;1.81;100.00;98973.78;5001012;28;20484;-76
2023/10/31 05:18:41;;;;;;;0.40;0.40;;;;;;;2.07;100.00;98978.94;5016949;28;20038;-76
2023/10/31 05:21:07;;;;;;;0.40;0.40;;;;;;;2.38;100.00;98972.00;5001391;28;20041;-75
2023/10/31 05:23:33;;;;;;;0.50;0.50;;;;;;;2.73;100.00;98974.44;5017732;28;20033;-76
2023/10/31 05:25:59;;;;;;;0.50;0.50;;;;;;;2.98;100.00;98967.22;5017047;28;20044;-76
2023/10/31 05:28:24;;;;;;;0.47;0.47;;;;;;;3.20;100.00;98977.09;5001234;28;20124;-76
2023/10/31 05:30:50;;;;;;;0.40;0.40;;;;;;;3.30;100.00;98979.53;4997787;28;20042;-76
2023/10/31 05:33:17;;;;;;;0.50;0.50;;;;;;;3.39;100.00;98978.50;4998151;28;20045;-76
2023/10/31 05:35:43;;;;;;;0.50;0.50;;;;;;;3.41;100.00;98975.66;5017466;28;20051;-76
2023/10/31 05:38:09;;;;;;;0.40;0.40;;;;;;;3.40;100.00;98972.19;5016516;28;20041;-75
2023/10/31 05:40:37;;;;;;;0.47;0.47;;;;;;;3.38;100.00;98984.00;5001020;28;20037;-76
2023/10/31 05:43:03;;;;;;;0.40;0.40;;;;;;;3.43;100.00;98977.16;5017536;28;20034;-76
2023/10/31 05:45:29;;;;;;;0.50;0.50;;;;;;;3.49;100.00;98973.81;5017133;28;20037;-75
2023/10/31 05:47:55;;;;;;;0.50;0.50;;;;;;;3.51;100.00;98973.63;5016283;28;20060;-75
2023/10/31 05:50:21;;;;;;;0.50;0.50;;;;;;;3.56;100.00;98981.91;5000184;28;20089;-76
2023/10/31 05:52:47;;;;;;;0.40;0.40;;;;;;;3.64;100.00;98979.19;5013005;28;20026;-76
2023/10/31 05:55:13;;;;;;;0.40;0.40;;;;;;;3.75;100.00;98981.44;5016323;28;20041;-76
2023/10/31 05:57:40;;;;;;;0.50;0.50;;;;;;;3.85;100.00;98989.22;5014729;28;20045;-76
2023/10/31 06:00:08;;;;;;;0.40;0.40;;;;;;;3.92;100.00;98990.16;5015500;28;20034;-76
2023/10/31 06:02:37;;;;;;;0.40;0.40;;;;;;;3.99;100.00;98987.63;5016929;28;20033;-75
2023/10/31 06:05:03;;;;;;;0.40;0.40;;;;;;;4.07;100.00;98992.88;4999099;28;20053;-76
2023/10/31 06:07:30;;;;;;;0.40;0.40;;;;;;;4.21;100.00;98993.97;5014474;28;20069;-75
2023/10/31 06:09:59;;;;;;;0.40;0.40;;;;;;;4.30;100.00;98994.72;5031377;28;20037;-76
2023/10/31 06:12:25;;;;;;;0.40;0.40;;;;;;;4.39;100.00;98994.47;5031939;28;20095;-76
2023/10/31 06:14:51;;;;;;;0.40;0.40;;;;;;;4.45;100.00;98984.94;5015200;28;20033;-75
2023/10/31 06:17:17;;;;;;;0.40;0.40;;;;;;;4.53;100.00;98992.84;4998280;28;20523;-76
2023/10/31 06:19:47;;;;;;;0.40;0.40;;;;;;;4.65;100.00;98992.41;4998869;28;20083;-76
2023/10/31 06:22:13;;;;;;;0.40;0.40;;;;;;;4.69;100.00;98994.53;5016267;28;20480;-76
2023/10/31 06:24:40;;;;;;;0.40;0.40;;;;;;;4.74;100.00;98994.00;4999119;28;20043;-76
2023/10/31 06:27:07;;;;;;;0.40;0.40;;;;;;;4.75;100.00;98992.97;5016642;28;20044;-76
2023/10/31 06:29:33;;;;;;;0.40;0.40;;;;;;;4.79;100.00;98991.59;5014510;28;20037;-76
2023/10/31 06:32:01;;;;;;;0.40;0.40;;;;;;;4.79;100.00;98996.91;5014259;28;20037;-76
2023/10/31 06:34:26;;;;;;;0.40;0.40;;;;;;;4.79;100.00;98999.59;5016639;28;20041;-75
2023/10/31 06:36:54;;;;;;;0.40;0.40;;;;;;;4.81;100.00;98998.41;5000319;28;20475;-75
2023/10/31 06:39:22;;;;;;;0.40;0.40;;;;;;;4.85;100.00;98998.88;5016334;28;20029;-75
2023/10/31 06:41:48;;;;;;;0.40;0.40;;;;;;;4.87;100.00;98996.00;5063552;28;20061;-76
2023/10/31 06:44:13;;;;;;;0.40;0.40;;;;;;;4.90;100.00;98995.69;4984068;28;20069;-76
2023/10/31 06:46:39;;;;;;;0.40;0.40;;;;;;;4.93;100.00;98988.13;5000123;28;20029;-76
2023/10/31 06:49:05;;;;;;;0.50;0.50;;;;;;;4.95;100.00;98988.78;4999831;28;20128;-75
2023/10/31 06:51:30;;;;;;;0.40;0.40;;;;;;;5.00;100.00;98996.22;4999540;28;20446;-76
2023/10/31 06:53:56;;;;;;;0.40;0.40;;;;;;;5.08;100.00;99009.47;5000057;28;20407;-75
2023/10/31 06:56:21;;;;;;;0.40;0.40;;;;;;;5.26;100.00;99009.06;5000095;28;20029;-76
2023/10/31 06:58:50;;;;;;;5.28;4.88;;;;;;;5.41;100.00;99017.06;5019075;28;20490;-76
2023/10/31 07:01:19;;;;;;;0.40;0.40;;;;;;;5.50;100.00;99018.59;5018906;28;20038;-76
2023/10/31 07:03:45;;;;;;;0.40;0.40;;;;;;;5.56;100.00;99023.22;4994051;28;20136;-76
2023/10/31 07:06:10;;;;;;;0.40;0.40;;;;;;;5.63;100.00;99016.09;5029088;28;20121;-76
2023/10/31 07:08:36;;;;;;;0.40;0.40;;;;;;;5.68;100.00;99027.03;5014865;28;20048;-76
2023/10/31 07:11:02;;;;;;;0.40;0.40;;;;;;;5.75;100.00;99027.13;4996915;28;20072;-76
2023/10/31 07:13:28;;;;;;;0.50;0.50;;;;;;;5.80;100.00;99024.75;5012802;28;20030;-76
2023/10/31 07:15:53;;;;;;;0.50;0.50;;;;;;;5.84;100.00;99023.34;5027334;28;20052;-76
2023/10/31 07:18:19;;;;;;;0.40;0.40;;;;;;;5.88;100.00;99026.47;5010085;28;20042;-76
2023/10/31 07:20:45;;;;;;;0.40;0.40;;;;;;;5.92;100.00;99022.41;5024715;28;20026;-76
2023/10/31 07:23:11;;;;;;;0.40;0.40;;;;;;;5.97;100.00;99024.53;4996682;28;20036;-76
2023/10/31 07:25:36;;;;;;;0.50;0.50;;;;;;;6.00;100.00;99022.31;5030557;28;20392;-76
2023/10/31 07:28:02;;;;;;;0.40;0.40;;;;;;;6.03;100.00;99032.59;5014788;28;20049;-76
2023/10/31 07:30:28;;;;;;;0.40;0.40;;;;;;;6.02;100.00;99028.28;4996782;28;20033;-76
2023/10/31 07:32:53;;;;;;;0.40;0.40;;;;;;;6.03;100.00;99027.25;4998449;28;20499;-76
2023/10/31 07:35:21;;;;;;;0.40;0.40;;;;;;;6.01;100.00;99021.31;4995956;28;20379;-76
2023/10/31 07:37:47;;;;;;;0.40;0.40;;;;;;;6.07;100.00;99028.56;5015959;28;20041;-76
2023/10/31 07:40:13;;;;;;;0.43;0.43;;;;;;;6.10;100.00;99036.16;5013567;28;20373;-76
2023/10/31 07:42:38;;;;;;;0.40;0.40;;;;;;;6.13;100.00;99038.47;4997272;28;20136;-76
2023/10/31 07:45:07;;;;;;;0.50;0.50;;;;;;;6.18;100.00;99039.75;5014453;28;20059;-76
2023/10/31 07:47:32;;;;;;;0.40;0.40;;;;;;;6.22;100.00;99041.00;5016053;28;20060;-76
2023/10/31 07:49:58;;;;;;;0.40;0.40;;;;;;;6.27;100.00;99036.78;5015517;28;20388;-76
2023/10/31 07:52:25;;;;;;;0.50;0.50;;;;;;;6.31;100.00;99037.22;5016471;28;20033;-76
2023/10/31 07:54:52;;;;;;;0.40;0.40;;;;;;;6.35;100.00;99041.13;5011051;28;20488;-76
2023/10/31 07:57:17;;;;;;;0.50;0.50;;;;;;;6.46;100.00;99037.16;4985098;28;20040;-76
2023/10/31 07:59:43;;;;;;;0.50;0.50;;;;;;;6.51;100.00;99038.22;4998696;28;20033;-76
2023/10/31 08:02:11;;;;;;;0.40;0.40;;;;;;;6.59;100.00;99040.78;5013437;28;20042;-76
2023/10/31 08:04:36;;;;;;;0.40;0.40;;;;;;;6.58;100.00;99039.09;4996869;28;20045;-76
2023/10/31 08:07:02;;;;;;;0.40;0.40;;;;;;;6.63;100.00;99051.88;5014620;28;20495;-76
2023/10/31 08:09:28;;;;;;;0.40;0.40;;;;;;;6.70;100.00;99055.44;5015627;28;20034;-76
2023/10/31 08:11:54;;;;;;;0.47;0.47;;;;;;;6.76;100.00;99059.19;5001127;28;20037;-76
2023/10/31 08:14:22;;;;;;;0.40;0.40;;;;;;;6.84;100.00;99064.38;4996945;28;20099;-76
2023/10/31 08:16:47;;;;;;;0.40;0.40;;;;;;;6.89;100.00;99061.97;4991174;28;20128;-77
2023/10/31 08:19:16;;;;;;;0.38;0.38;;;;;;;6.95;100.00;99055.84;4998256;28;20557;-76
2023/10/31 08:21:41;;;;;;;0.40;0.40;;;;;;;7.09;100.00;99061.28;5017663;28;20043;-78
2023/10/31 08:24:09;;;;;;;0.47;0.47;;;;;;;7.20;100.00;99058.09;4999232;28;20518;-75
2023/10/31 08:26:34;;;;;;;0.40;0.40;;;;;;;7.37;100.00;99067.44;5032569;28;20498;-76
2023/10/31 08:29:01;;;;;;;0.40;0.40;;;;;;;7.45;100.00;99055.75;5018024;28;20053;-75
2023/10/31 08:31:27;;;;;;;1.45;1.45;;;;;;;7.60;100.00;99075.19;5002401;28;20056;-75
2023/10/31 08:33:52;;;;;;;0.60;0.60;;;;;;;7.67;100.00;99072.53;5001071;28;20037;-75
2023/10/31 08:36:18;;;;;;;0.40;0.40;;;;;;;7.68;100.00;99071.53;5017576;28;20471;-75
2023/10/31 08:38:46;;;;;;;0.50;0.50;;;;;;;7.77;100.00;99080.19;5002010;28;20030;-76
2023/10/31 08:41:12;;;;;;;0.40;0.40;;;;;;;7.84;100.00;99073.84;5001246;28;20025;-75
2023/10/31 08:43:37;;;;;;;0.43;0.43;;;;;;;7.93;100.00;99086.03;5002508;28;20068;-75
2023/10/31 08:46:03;;;;;;;0.40;0.40;;;;;;;8.01;100.00;99078.84;5018474;28;20051;-74
2023/10/31 08:48:29;;;;;;;0.40;0.40;;;;;;;8.09;100.00;99090.19;4999480;28;20030;-76
2023/10/31 08:50:54;;;;;;;0.40;0.40;;;;;;;8.08;100.00;99091.25;5017904;28;20044;-75
2023/10/31 08:53:20;;;;;;;0.40;0.40;;;;;;;8.17;100.00;99091.06;5018330;28;20061;-75
2023/10/31 08:55:46;;;;;;;0.40;0.40;;;;;;;8.20;100.00;99091.47;5002091;28;20029;-74
2023/10/31 08:58:14;;;;;;;0.40;0.40;;;;;;;8.10;100.00;99086.50;4994567;28;20044;-74
2023/10/31 09:00:46;;;;;;;0.40;0.40;;;;;;;8.12;100.00;99095.19;5001011;28;20456;-75
2023/10/31 09:03:12;;;;;;;0.40;0.40;;;;;;;8.13;100.00;99106.72;5000723;28;20037;-76
2023/10/31 09:05:38;;;;;;;0.50;0.50;;;;;;;8.17;100.00;99107.94;5013150;28;20048;-77
2023/10/31 09:08:06;;;;;;;0.40;0.40;;;;;;;8.22;100.00;99100.13;5034044;28;20495;-75
2023/10/31 09:10:38;;;;;;;0.40;0.40;;;;;;;8.37;100.00;99097.31;5015944;28;20036;-75
2023/10/31 09:13:03;;;;;;;0.40;0.40;;;;;;;8.38;100.00;99089.06;5015314;28;20102;-76
2023/10/31 09:15:29;;;;;;;0.40;0.40;;;;;;;8.43;100.00;99093.03;5016730;28;20064;-75
2023/10/31 09:17:55;;;;;;;0.40;0.40;;;;;;;8.46;100.00;99096.09;5033978;28;20038;-74
2023/10/31 09:20:21;;;;;;;0.40;0.40;;;;;;;8.50;100.00;99091.19;5017760;28;20454;-77
2023/10/31 09:22:46;;;;;;;0.30;0.30;;;;;;;8.53;100.00;99093.47;5017020;28;20040;-76
2023/10/31 09:25:12;;;;;;;0.40;0.40;;;;;;;8.61;100.00;99092.44;5001637;28;20048;-75
2023/10/31 09:27:40;;;;;;;0.40;0.40;;;;;;;8.75;100.00;99086.88;5033901;28;20499;-75
2023/10/31 09:30:06;;;;;;;0.40;0.40;;;;;;;9.06;100.00;99088.13;4997317;28;20033;-75
2023/10/31 09:32:32;;;;;;;0.30;0.30;;;;;;;9.07;100.00;99088.94;5007919;28;20038;-74
2023/10/31 09:34:58;;;;;;;0.40;0.40;;;;;;;9.15;100.00;99086.06;4998060;28;20365;-75
2023/10/31 09:37:24;;;;;;;0.30;0.30;;;;;;;9.34;100.00;99081.69;5015032;28;20120;-75
2023/10/31 09:39:49;;;;;;;0.40;0.40;;;;;;;9.10;100.00;99080.50;5022670;28;20512;-75
2023/10/31 09:42:15;;;;;;;0.60;0.60;;;;;;;9.11;100.00;99074.94;5018283;28;20033;-76
2023/10/31 09:44:41;;;;;;;0.50;0.50;;;;;;;9.56;100.00;99084.97;4999845;28;20499;-76
2023/10/31 09:47:24;;;;;;;0.40;0.40;;;;;;;9.63;100.00;99083.94;5000301;28;20037;-75
2023/10/31 09:49:53;;;;;;;0.40;0.40;;;;;;;9.42;100.00;99093.06;5044848;28;20174;-76
2023/10/31 09:52:22;;;;;;;0.47;0.47;;;;;;;9.23;100.00;99081.31;5002589;28;20435;-81
2023/10/31 09:54:52;;;;;;;0.40;0.40;;;;;;;9.23;100.00;99085.84;5005374;28;20124;-81
2023/10/31 09:57:17;;;;;;;0.40;0.40;;;;;;;9.44;100.00;99092.81;5031357;28;20034;-79
2023/10/31 09:59:43;;;;;;;0.40;0.40;;;;;;;9.93;100.00;99080.72;4999536;28;20041;-81
2023/10/31 10:02:09;;;;;;;0.47;0.47;;;;;;;10.27;100.00;99086.78;5007698;28;20033;-80
2023/10/31 10:04:36;;;;;;;0.40;0.40;;;;;;;10.32;100.00;99084.31;5019169;28;20472;-81
2023/10/31 10:07:03;;;;;;;0.40;0.40;;;;;;;10.23;100.00;99082.84;5018953;28;20041;-81
2023/10/31 10:09:29;;;;;;;0.65;0.65;;;;;;;9.83;100.00;99091.91;5036843;28;20033;-82
2023/10/31 10:11:56;;;;;;;0.40;0.40;;;;;;;9.82;100.00;99090.28;5010680;28;20061;-81
2023/10/31 10:14:28;;;;;;;0.32;0.32;;;;;;;9.88;100.00;99086.72;5008301;28;20026;-82
2023/10/31 10:16:54;;;;;;;0.50;0.50;;;;;;;10.74;100.00;99093.53;5018351;28;20591;-82
2023/10/31 10:19:21;;;;;;;0.50;0.50;;;;;;;11.44;100.00;99087.16;5034158;28;20029;-80
2023/10/31 10:21:50;;;;;;;0.50;0.50;;;;;;;11.73;100.00;99082.91;4997697;28;20487;-81
2023/10/31 10:24:18;;;;;;;0.57;0.57;;;;;;;12.42;100.00;99078.13;5021844;28;20403;-82
2023/10/31 10:26:44;;;;;;;0.40;0.40;;;;;;;12.42;100.00;99075.44;5003374;28;20491;-82
2023/10/31 10:29:13;;;;;;;0.45;0.45;;;;;;;12.56;100.00;99073.38;5032570;28;20041;-82
2023/10/31 10:31:40;;;;;;;0.38;0.38;;;;;;;11.96;100.00;99070.66;5032248;28;20029;-82
2023/10/31 10:34:06;;;;;;;0.40;0.40;;;;;;;11.39;100.00;99074.34;5028426;28;20123;-81
2023/10/31 10:36:33;;;;;;;0.60;0.60;;;;;;;12.50;100.00;99072.41;5032780;28;20076;-82
2023/10/31 10:38:59;;;;;;;0.60;0.60;;;;;;;13.45;100.00;99067.19;5013955;28;20634;-81
2023/10/31 10:41:26;;;;;;;0.40;0.40;;;;;;;13.41;100.00;99064.13;4998751;28;20107;-80
2023/10/31 10:44:05;;;;;;;0.52;0.52;;;;;;;13.08;100.00;99062.81;5019918;28;20036;-84
2023/10/31 10:46:36;;;;;;;0.55;0.55;;;;;;;12.76;100.00;99059.59;5019118;28;20377;-84
2023/10/31 10:49:06;;;;;;;0.40;0.40;;;;;;;12.36;100.00;99052.09;5001619;28;20483;-83
2023/10/31 10:52:01;;;;;;;0.47;0.47;;;;;;;12.01;100.00;99049.25;4999530;28;20080;-83
2023/10/31 10:54:33;;;;;;;0.40;0.40;;;;;;;11.60;100.00;99050.75;5030732;28;20431;-84
2023/10/31 10:57:16;;;;;;;0.50;0.50;;;;;;;11.40;100.00;99042.88;5012815;28;20460;-81
2023/10/31 10:59:43;;;;;;;0.47;0.47;;;;;;;11.49;100.00;99046.94;5013043;28;20040;-80
2023/10/31 11:02:12;;;;;;;0.40;0.40;;;;;;;11.77;100.00;99043.69;5061052;28;20025;-82
2023/10/31 11:04:39;;;;;;;0.50;0.50;;;;;;;12.58;100.00;99049.69;5028582;28;20025;-80
2023/10/31 11:07:07;;;;;;;0.50;0.50;;;;;;;13.24;100.00;99050.50;4999983;28;20060;-80
2023/10/31 11:09:33;;;;;;;0.50;0.50;;;;;;;13.04;100.00;99050.81;5011759;28;20117;-83
2023/10/31 11:11:59;;;;;;;0.52;0.52;;;;;;;13.07;100.00;99046.84;5014696;28;20033;-80
2023/10/31 11:14:25;;;;;;;0.40;0.40;;;;;;;12.86;100.00;99045.53;5030418;28;20037;-80
2023/10/31 11:16:53;;;;;;;0.60;0.60;;;;;;;12.34;100.00;99048.81;5029297;28;20036;-80
2023/10/31 11:19:19;;;;;;;0.40;0.40;;;;;;;12.06;100.00;99041.31;5014661;28;20034;-80
2023/10/31 11:21:55;;;;;;;0.40;0.40;;;;;;;11.58;100.00;99032.13;5029867;28;20033;-80
2023/10/31 11:24:23;;;;;;;0.60;0.60;;;;;;;11.11;100.00;99025.59;5015892;28;20033;-79
2023/10/31 11:26:53;;;;;;;0.43;0.43;;;;;;;10.96;100.00;99034.81;5043295;28;20468;-79